createdAt,value
2017-12-15T00:00:06.289Z,72.8
2017-12-15T00:15:05.772Z,69.5
2017-12-15T00:30:04.958Z,72.1
2017-12-15T00:45:07.516Z,74.6
2017-12-15T01:00:06.099Z,71.3
2017-12-15T01:15:07.711Z,71.1
2017-12-15T01:30:04.418Z,70.1
2017-12-15T01:45:04.820Z,68.3
2017-12-15T02:00:04.727Z,68.7
2017-12-15T02:15:04.996Z,67.9
2017-12-15T02:30:05.421Z,68.6
2017-12-15T02:45:04.594Z,69
2017-12-15T03:00:04.523Z,68.4
2017-12-15T03:15:09.426Z,70.8
2017-12-15T03:30:04.679Z,71.6
2017-12-15T03:45:05.994Z,70.5
2017-12-15T04:00:04.903Z,70
2017-12-15T04:15:07.510Z,70
2017-12-15T04:30:05.381Z,68.5
2017-12-15T04:45:07.868Z,69.4
2017-12-15T05:00:04.979Z,70.2
2017-12-15T05:15:05.048Z,70.2
2017-12-15T05:30:05.530Z,70
2017-12-15T05:45:04.498Z,69.4
2017-12-15T06:00:04.413Z,68.7
2017-12-15T06:15:04.871Z,67.5
2017-12-15T06:30:04.499Z,65.1
2017-12-15T06:45:04.374Z,66.8
2017-12-15T07:00:05.843Z,65.8
2017-12-15T07:15:07.827Z,64.9
2017-12-15T07:30:05.004Z,64.2
2017-12-15T07:45:04.495Z,63.3
2017-12-15T08:00:05.360Z,64.4
2017-12-15T08:15:04.812Z,64.7
2017-12-15T08:30:04.540Z,64
2017-12-15T08:45:05.069Z,64.1
2017-12-15T09:00:04.541Z,66.6
2017-12-15T09:15:04.986Z,60.5
2017-12-15T09:30:05.776Z,60.6
2017-12-15T09:45:05.695Z,62.1
2017-12-15T10:00:04.674Z,62.6
2017-12-15T10:15:06.153Z,63.3
2017-12-15T10:30:04.833Z,63.7
2017-12-15T10:45:04.955Z,64.1
2017-12-15T11:00:04.327Z,63.6
2017-12-15T11:15:04.764Z,62.1
2017-12-15T11:30:07.556Z,62.2
2017-12-15T11:45:04.886Z,62.5
2017-12-15T12:00:05.193Z,60
2017-12-15T12:15:06.171Z,59.5
2017-12-15T12:30:04.776Z,60
2017-12-15T12:45:04.678Z,60.3
2017-12-15T13:00:05.158Z,59.3
2017-12-15T13:15:12.238Z,59.4
2017-12-15T13:30:10.472Z,59.7
2017-12-15T13:45:07.349Z,59.4
2017-12-15T14:00:04.733Z,59.4
2017-12-15T14:15:04.708Z,59
2017-12-15T14:30:04.380Z,59.3
2017-12-15T14:45:04.265Z,58.5
2017-12-15T15:00:04.677Z,59.3
2017-12-15T15:15:05.166Z,58
2017-12-15T15:30:07.847Z,58.1
2017-12-15T15:45:05.764Z,58.5
2017-12-15T16:00:05.125Z,59.6
2017-12-15T16:15:07.614Z,58.7
2017-12-15T16:30:07.716Z,59.5
2017-12-15T16:45:04.566Z,60.1
2017-12-15T17:00:05.089Z,59.3
2017-12-15T17:15:04.580Z,59.4
2017-12-15T17:30:05.190Z,60.8
2017-12-15T17:45:05.084Z,60.3
2017-12-15T18:15:05.918Z,60.8
2017-12-15T18:30:07.787Z,61.5
2017-12-15T18:45:05.224Z,61.7
2017-12-15T19:00:08.397Z,61
2017-12-15T19:15:04.911Z,61.7
2017-12-15T19:30:05.031Z,61.5
2017-12-15T19:45:04.932Z,60.1
2017-12-15T20:00:07.510Z,60.7
2017-12-15T20:15:04.914Z,63.8
2017-12-15T20:30:04.987Z,62.6
2017-12-15T20:45:04.425Z,63.1
2017-12-15T21:00:04.911Z,61
2017-12-15T21:15:04.895Z,62.1
2017-12-15T21:30:05.034Z,63.9
2017-12-15T21:45:05.429Z,62.2
2017-12-15T22:00:04.314Z,62.2
2017-12-15T22:15:04.807Z,63
2017-12-15T22:30:04.440Z,62.3
2017-12-15T22:45:05.873Z,61.8
2017-12-15T23:00:04.505Z,61.5
2017-12-15T23:15:04.413Z,61.6
2017-12-15T23:30:05.890Z,63
2017-12-15T23:45:08.110Z,61.9
